sensor_id;sensor_type;location;lat;lon;timestamp;pressure;altitude;pressure_sealevel;temperature;humidity
67109;BME280;54027;50.786;7.058;2023-05-08T00:00:46;101496.34;;;15.12;100.00
67109;BME280;54027;50.786;7.058;2023-05-08T00:03:11;101494.59;;;15.12;100.00
67109;BME280;54027;50.786;7.058;2023-05-08T00:05:37;101498.06;;;15.11;100.00
67109;BME280;54027;50.786;7.058;2023-05-08T00:08:02;101503.28;;;15.11;100.00
67109;BME280;54027;50.786;7.058;2023-05-08T00:10:28;101503.28;;;15.11;100.00
67109;BME280;54027;50.786;7.058;2023-05-08T00:12:54;101509.34;;;15.12;100.00
67109;BME280;54027;50.786;7.058;2023-05-08T00:15:19;101509.34;;;15.12;100.00
67109;BME280;54027;50.786;7.058;2023-05-08T00:17:45;101510.22;;;15.11;100.00
67109;BME280;54027;50.786;7.058;2023-05-08T00:20:11;101511.09;;;15.11;100.00
67109;BME280;54027;50.786;7.058;2023-05-08T00:22:36;101514.56;;;15.12;100.00
67109;BME280;54027;50.786;7.058;2023-05-08T00:25:02;101514.56;;;15.12;100.00
67109;BME280;54027;50.786;7.058;2023-05-08T00:27:29;101511.09;;;15.11;100.00
67109;BME280;54027;50.786;7.058;2023-05-08T00:29:55;101516.31;;;15.11;100.00
67109;BME280;54027;50.786;7.058;2023-05-08T00:32:21;101513.75;;;15.10;100.00
67109;BME280;54027;50.786;7.058;2023-05-08T00:34:46;101511.13;;;15.10;100.00
67109;BME280;54027;50.786;7.058;2023-05-08T00:37:12;101518.03;;;15.12;100.00
67109;BME280;54027;50.786;7.058;2023-05-08T00:39:37;101513.69;;;15.11;100.00
67109;BME280;54027;50.786;7.058;2023-05-08T00:42:03;101518.03;;;15.11;100.00
67109;BME280;54027;50.786;7.058;2023-05-08T00:44:28;101521.56;;;15.10;100.00
67109;BME280;54027;50.786;7.058;2023-05-08T00:46:53;101525.91;;;15.08;100.00
67109;BME280;54027;50.786;7.058;2023-05-08T00:49:19;101521.59;;;15.05;100.00
67109;BME280;54027;50.786;7.058;2023-05-08T00:51:46;101523.38;;;15.03;100.00
67109;BME280;54027;50.786;7.058;2023-05-08T00:54:12;101519.94;;;15.01;100.00
67109;BME280;54027;50.786;7.058;2023-05-08T00:56:39;101518.22;;;15.00;100.00
67109;BME280;54027;50.786;7.058;2023-05-08T00:59:11;101528.66;;;14.99;100.00
67109;BME280;54027;50.786;7.058;2023-05-08T01:01:37;101530.41;;;14.98;100.00
67109;BME280;54027;50.786;7.058;2023-05-08T01:04:04;101526.09;;;14.96;100.00
67109;BME280;54027;50.786;7.058;2023-05-08T01:06:29;101526.16;;;14.91;100.00
67109;BME280;54027;50.786;7.058;2023-05-08T01:08:56;101538.31;;;14.91;100.00
67109;BME280;54027;50.786;7.058;2023-05-08T01:11:46;101531.44;;;14.87;100.00
67109;BME280;54027;50.786;7.058;2023-05-08T01:14:31;101527.97;;;14.85;100.00
67109;BME280;54027;50.786;7.058;2023-05-08T01:17:14;101529.75;;;14.81;100.00
67109;BME280;54027;50.786;7.058;2023-05-08T01:33:46;101524.59;;;14.78;100.00
67109;BME280;54027;50.786;7.058;2023-05-08T01:36:19;101534.22;;;14.75;100.00
67109;BME280;54027;50.786;7.058;2023-05-08T01:41:33;101534.25;;;14.72;100.00
67109;BME280;54027;50.786;7.058;2023-05-08T01:44:16;101531.63;;;14.72;100.00
67109;BME280;54027;50.786;7.058;2023-05-08T01:46:47;101529.91;;;14.71;100.00
67109;BME280;54027;50.786;7.058;2023-05-08T01:49:29;101531.66;;;14.70;100.00
67109;BME280;54027;50.786;7.058;2023-05-08T01:52:02;101528.19;;;14.70;100.00
67109;BME280;54027;50.786;7.058;2023-05-08T01:54:34;101525.56;;;14.70;100.00
67109;BME280;54027;50.786;7.058;2023-05-08T01:57:00;101523.88;;;14.69;100.00
67109;BME280;54027;50.786;7.058;2023-05-08T01:59:29;101526.47;;;14.69;100.00
67109;BME280;54027;50.786;7.058;2023-05-08T02:01:57;101529.94;;;14.68;100.00
67109;BME280;54027;50.786;7.058;2023-05-08T02:04:25;101531.72;;;14.65;100.00
67109;BME280;54027;50.786;7.058;2023-05-08T02:06:53;101535.19;;;14.64;100.00
67109;BME280;54027;50.786;7.058;2023-05-08T02:09:20;101541.22;;;14.66;100.00
67109;BME280;54027;50.786;7.058;2023-05-08T02:11:48;101539.50;;;14.67;100.00
67109;BME280;54027;50.786;7.058;2023-05-08T02:14:16;101537.78;;;14.66;100.00
67109;BME280;54027;50.786;7.058;2023-05-08T02:16:44;101546.47;;;14.65;100.00
67109;BME280;54027;50.786;7.058;2023-05-08T02:19:12;101544.72;;;14.64;100.00
67109;BME280;54027;50.786;7.058;2023-05-08T02:21:39;101548.25;;;14.61;100.00
67109;BME280;54027;50.786;7.058;2023-05-08T02:24:05;101549.09;;;14.60;100.00
67109;BME280;54027;50.786;7.058;2023-05-08T02:26:31;101543.94;;;14.57;100.00
67109;BME280;54027;50.786;7.058;2023-05-08T02:28:59;101544.81;;;14.58;100.00
67109;BME280;54027;50.786;7.058;2023-05-08T02:31:26;101549.16;;;14.57;100.00
67109;BME280;54027;50.786;7.058;2023-05-08T02:33:54;101547.41;;;14.58;100.00
67109;BME280;54027;50.786;7.058;2023-05-08T02:36:20;101553.44;;;14.61;100.00
67109;BME280;54027;50.786;7.058;2023-05-08T02:38:50;101553.44;;;14.61;100.00
67109;BME280;54027;50.786;7.058;2023-05-08T02:41:18;101554.31;;;14.62;100.00
67109;BME280;54027;50.786;7.058;2023-05-08T02:43:44;101554.31;;;14.62;100.00
67109;BME280;54027;50.786;7.058;2023-05-08T02:48:44;101552.56;;;14.62;100.00
67109;BME280;54027;50.786;7.058;2023-05-08T02:53:54;101563.88;;;14.60;100.00
67109;BME280;54027;50.786;7.058;2023-05-08T02:59:29;101558.69;;;14.58;100.00
67109;BME280;54027;50.786;7.058;2023-05-08T03:02:06;101562.16;;;14.57;100.00
67109;BME280;54027;50.786;7.058;2023-05-08T03:04:36;101562.16;;;14.57;100.00
67109;BME280;54027;50.786;7.058;2023-05-08T03:07:05;101568.25;;;14.56;100.00
67109;BME280;54027;50.786;7.058;2023-05-08T03:09:57;101570.03;;;14.53;100.00
67109;BME280;54027;50.786;7.058;2023-05-08T03:12:25;101568.25;;;14.55;100.00
67109;BME280;54027;50.786;7.058;2023-05-08T03:14:59;101570.00;;;14.54;100.00
67109;BME280;54027;50.786;7.058;2023-05-08T03:17:29;101563.09;;;14.53;100.00
67109;BME280;54027;50.786;7.058;2023-05-08T03:19:59;101565.69;;;14.53;100.00
67109;BME280;54027;50.786;7.058;2023-05-08T03:22:29;101559.63;;;14.51;100.00
67109;BME280;54027;50.786;7.058;2023-05-08T03:24:57;101557.88;;;14.52;100.00
67109;BME280;54027;50.786;7.058;2023-05-08T03:27:24;101563.97;;;14.52;100.00
67109;BME280;54027;50.786;7.058;2023-05-08T03:29:50;101561.38;;;14.51;100.00
67109;BME280;54027;50.786;7.058;2023-05-08T03:32:18;101557.06;;;14.50;100.00
67109;BME280;54027;50.786;7.058;2023-05-08T03:34:46;101556.19;;;14.49;100.00
67109;BME280;54027;50.786;7.058;2023-05-08T03:37:12;101557.97;;;14.47;100.00
67109;BME280;54027;50.786;7.058;2023-05-08T03:39:38;101552.75;;;14.47;100.00
67109;BME280;54027;50.786;7.058;2023-05-08T03:42:03;101560.56;;;14.46;100.00
67109;BME280;54027;50.786;7.058;2023-05-08T03:44:29;101556.25;;;14.43;100.00
67109;BME280;54027;50.786;7.058;2023-05-08T03:46:55;101564.97;;;14.42;100.00
67109;BME280;54027;50.786;7.058;2023-05-08T03:49:24;101551.13;;;14.39;100.00
67109;BME280;54027;50.786;7.058;2023-05-08T03:51:52;101554.59;;;14.35;100.00
67109;BME280;54027;50.786;7.058;2023-05-08T03:54:18;101558.94;;;14.34;100.00
67109;BME280;54027;50.786;7.058;2023-05-08T03:56:43;101565.91;;;14.32;100.00
67109;BME280;54027;50.786;7.058;2023-05-08T03:59:13;101560.66;;;14.34;100.00
67109;BME280;54027;50.786;7.058;2023-05-08T04:01:51;101572.84;;;14.32;100.00
67109;BME280;54027;50.786;7.058;2023-05-08T04:04:38;101571.09;;;14.31;100.00
67109;BME280;54027;50.786;7.058;2023-05-08T04:12:21;101568.53;;;14.29;100.00
67109;BME280;54027;50.786;7.058;2023-05-08T04:15:03;101565.94;;;14.29;100.00
67109;BME280;54027;50.786;7.058;2023-05-08T04:17:42;101565.09;;;14.27;100.00
67109;BME280;54027;50.786;7.058;2023-05-08T04:20:13;101571.13;;;14.28;100.00
67109;BME280;54027;50.786;7.058;2023-05-08T04:22:41;101561.66;;;14.24;100.00
67109;BME280;54027;50.786;7.058;2023-05-08T04:25:08;101569.47;;;14.24;100.00
67109;BME280;54027;50.786;7.058;2023-05-08T04:27:34;101566.91;;;14.21;100.00
67109;BME280;54027;50.786;7.058;2023-05-08T04:30:00;101568.63;;;14.22;100.00
67109;BME280;54027;50.786;7.058;2023-05-08T04:32:28;101564.25;;;14.22;100.00
67109;BME280;54027;50.786;7.058;2023-05-08T04:34:54;101569.47;;;14.22;100.00
67109;BME280;54027;50.786;7.058;2023-05-08T04:37:25;101570.34;;;14.21;100.00
67109;BME280;54027;50.786;7.058;2023-05-08T04:39:51;101576.44;;;14.22;100.00
67109;BME280;54027;50.786;7.058;2023-05-08T04:42:16;101566.03;;;14.22;100.00
67109;BME280;54027;50.786;7.058;2023-05-08T04:44:42;101578.13;;;14.23;100.00
67109;BME280;54027;50.786;7.058;2023-05-08T04:47:07;101573.75;;;14.25;100.00
67109;BME280;54027;50.786;7.058;2023-05-08T04:49:33;101573.75;;;14.25;100.00
67109;BME280;54027;50.786;7.058;2023-05-08T04:51:58;101575.50;;;14.27;100.00
67109;BME280;54027;50.786;7.058;2023-05-08T04:54:23;101578.13;;;14.23;100.00
67109;BME280;54027;50.786;7.058;2023-05-08T04:56:49;101580.72;;;14.24;100.00
67109;BME280;54027;50.786;7.058;2023-05-08T04:59:14;101577.25;;;14.22;100.00
67109;BME280;54027;50.786;7.058;2023-05-08T05:01:40;101583.34;;;14.24;100.00
67109;BME280;54027;50.786;7.058;2023-05-08T05:04:05;101589.38;;;14.26;100.00
67109;BME280;54027;50.786;7.058;2023-05-08T05:06:31;101591.13;;;14.24;100.00
67109;BME280;54027;50.786;7.058;2023-05-08T05:08:57;101601.53;;;14.23;100.00
67109;BME280;54027;50.786;7.058;2023-05-08T05:11:23;101599.84;;;14.20;100.00
67109;BME280;54027;50.786;7.058;2023-05-08T05:13:48;101589.38;;;14.25;100.00
67109;BME280;54027;50.786;7.058;2023-05-08T05:16:13;101595.47;;;14.24;100.00
67109;BME280;54027;50.786;7.058;2023-05-08T05:18:39;101599.75;;;14.25;100.00
67109;BME280;54027;50.786;7.058;2023-05-08T05:21:04;101609.28;;;14.30;100.00
67109;BME280;54027;50.786;7.058;2023-05-08T05:23:30;101603.16;;;14.31;100.00
67109;BME280;54027;50.786;7.058;2023-05-08T05:25:55;101609.25;;;14.32;100.00
67109;BME280;54027;50.786;7.058;2023-05-08T05:28:20;101605.75;;;14.34;100.00
67109;BME280;54027;50.786;7.058;2023-05-08T05:30:46;101613.47;;;14.43;100.00
67109;BME280;54027;50.786;7.058;2023-05-08T05:33:12;101608.28;;;14.43;100.00
67109;BME280;54027;50.786;7.058;2023-05-08T05:35:38;101618.63;;;14.49;100.00
67109;BME280;54027;50.786;7.058;2023-05-08T05:38:03;101616.88;;;14.50;100.00
67109;BME280;54027;50.786;7.058;2023-05-08T05:40:29;101615.19;;;14.46;100.00
67109;BME280;54027;50.786;7.058;2023-05-08T05:42:55;101615.19;;;14.47;100.00
67109;BME280;54027;50.786;7.058;2023-05-08T05:45:20;101620.38;;;14.46;100.00
67109;BME280;54027;50.786;7.058;2023-05-08T05:47:46;101623.00;;;14.46;100.00
67109;BME280;54027;50.786;7.058;2023-05-08T05:50:18;101622.06;;;14.51;100.00
67109;BME280;54027;50.786;7.058;2023-05-08T05:52:44;101622.03;;;14.56;100.00
67109;BME280;54027;50.786;7.058;2023-05-08T05:55:09;101623.69;;;14.61;100.00
67109;BME280;54027;50.786;7.058;2023-05-08T05:57:35;101633.16;;;14.67;100.00
67109;BME280;54027;50.786;7.058;2023-05-08T06:00:02;101631.41;;;14.71;100.00
67109;BME280;54027;50.786;7.058;2023-05-08T06:02:28;101634.88;;;14.71;100.00
67109;BME280;54027;50.786;7.058;2023-05-08T06:04:53;101640.00;;;14.76;100.00
67109;BME280;54027;50.786;7.058;2023-05-08T06:07:18;101638.28;;;14.76;100.00
67109;BME280;54027;50.786;7.058;2023-05-08T06:09:45;101635.69;;;14.73;100.00
67109;BME280;54027;50.786;7.058;2023-05-08T06:12:11;101636.66;;;14.64;100.00
67109;BME280;54027;50.786;7.058;2023-05-08T06:14:36;101641.91;;;14.61;100.00
67109;BME280;54027;50.786;7.058;2023-05-08T06:17:02;101642.72;;;14.66;100.00
67109;BME280;54027;50.786;7.058;2023-05-08T06:19:27;101644.47;;;14.64;100.00
67109;BME280;54027;50.786;7.058;2023-05-08T06:21:53;101647.91;;;14.66;100.00
67109;BME280;54027;50.786;7.058;2023-05-08T06:24:18;101641.84;;;14.68;100.00
67109;BME280;54027;50.786;7.058;2023-05-08T06:26:44;101642.72;;;14.66;100.00
67109;BME280;54027;50.786;7.058;2023-05-08T06:29:11;101651.31;;;14.73;100.00
67109;BME280;54027;50.786;7.058;2023-05-08T06:31:36;101651.28;;;14.78;100.00
67109;BME280;54027;50.786;7.058;2023-05-08T06:34:02;101647.75;;;14.82;100.00
67109;BME280;54027;50.786;7.058;2023-05-08T06:36:27;101646.78;;;14.90;100.00
67109;BME280;54027;50.786;7.058;2023-05-08T06:38:52;101649.28;;;14.98;100.00
67109;BME280;54027;50.786;7.058;2023-05-08T06:41:18;101644.91;;;15.01;100.00
67109;BME280;54027;50.786;7.058;2023-05-08T06:43:43;101641.34;;;15.08;100.00
67109;BME280;54027;50.786;7.058;2023-05-08T06:46:09;101646.41;;;15.19;100.00
67109;BME280;54027;50.786;7.058;2023-05-08T06:48:34;101636.84;;;15.21;100.00
67109;BME280;54027;50.786;7.058;2023-05-08T06:50:59;101646.25;;;15.30;100.00
67109;BME280;54027;50.786;7.058;2023-05-08T06:53:26;101648.78;;;15.36;100.00
67109;BME280;54027;50.786;7.058;2023-05-08T06:55:51;101643.50;;;15.42;100.00
67109;BME280;54027;50.786;7.058;2023-05-08T06:58:17;101641.66;;;15.47;100.00
67109;BME280;54027;50.786;7.058;2023-05-08T07:00:42;101638.09;;;15.52;100.00
67109;BME280;54027;50.786;7.058;2023-05-08T07:03:07;101639.88;;;15.50;100.00
67109;BME280;54027;50.786;7.058;2023-05-08T07:05:33;101645.22;;;15.43;100.00
67109;BME280;54027;50.786;7.058;2023-05-08T07:07:58;101649.56;;;15.41;100.00
67109;BME280;54027;50.786;7.058;2023-05-08T07:10:23;101647.84;;;15.41;100.00
67109;BME280;54027;50.786;7.058;2023-05-08T07:12:49;101649.56;;;15.42;100.00
67109;BME280;54027;50.786;7.058;2023-05-08T07:15:14;101653.94;;;15.40;100.00
67109;BME280;54027;50.786;7.058;2023-05-08T07:17:40;101644.41;;;15.39;100.00
67109;BME280;54027;50.786;7.058;2023-05-08T07:20:06;101649.56;;;15.42;100.00
67109;BME280;54027;50.786;7.058;2023-05-08T07:22:32;101644.31;;;15.45;100.00
67109;BME280;54027;50.786;7.058;2023-05-08T07:24:57;101650.34;;;15.47;100.00
67109;BME280;54027;50.786;7.058;2023-05-08T07:27:23;101637.25;;;15.53;100.00
67109;BME280;54027;50.786;7.058;2023-05-08T07:29:48;101646.59;;;15.69;100.00
67109;BME280;54027;50.786;7.058;2023-05-08T07:32:14;101643.72;;;15.86;100.00
67109;BME280;54027;50.786;7.058;2023-05-08T07:34:39;101648.72;;;15.98;99.71
67109;BME280;54027;50.786;7.058;2023-05-08T07:37:05;101652.00;;;16.09;99.01
67109;BME280;54027;50.786;7.058;2023-05-08T07:39:31;101656.88;;;16.30;98.44
67109;BME280;54027;50.786;7.058;2023-05-08T07:41:56;101655.28;;;16.23;96.81
67109;BME280;54027;50.786;7.058;2023-05-08T07:44:22;101661.03;;;16.41;97.16
67109;BME280;54027;50.786;7.058;2023-05-08T07:46:47;101654.63;;;16.57;97.34
67109;BME280;54027;50.786;7.058;2023-05-08T07:49:13;101661.47;;;16.62;95.22
67109;BME280;54027;50.786;7.058;2023-05-08T07:51:38;101659.03;;;16.55;95.22
67109;BME280;54027;50.786;7.058;2023-05-08T07:54:04;101663.03;;;16.72;95.59
67109;BME280;54027;50.786;7.058;2023-05-08T07:56:30;101659.47;;;16.79;95.23
67109;BME280;54027;50.786;7.058;2023-05-08T07:58:55;101656.84;;;16.79;93.81
67109;BME280;54027;50.786;7.058;2023-05-08T08:01:21;101657.81;;;16.74;93.70
67109;BME280;54027;50.786;7.058;2023-05-08T08:03:46;101654.19;;;16.81;93.65
67109;BME280;54027;50.786;7.058;2023-05-08T08:06:12;101657.44;;;16.92;93.43
67109;BME280;54027;50.786;7.058;2023-05-08T08:08:38;101658.13;;;17.03;92.70
67109;BME280;54027;50.786;7.058;2023-05-08T08:11:04;101655.44;;;17.05;91.74
67109;BME280;54027;50.786;7.058;2023-05-08T08:13:30;101658.94;;;17.05;91.33
67109;BME280;54027;50.786;7.058;2023-05-08T08:15:55;101665.34;;;16.91;91.91
67109;BME280;54027;50.786;7.058;2023-05-08T08:18:21;101668.63;;;16.99;93.20
67109;BME280;54027;50.786;7.058;2023-05-08T08:20:46;101664.41;;;16.93;92.30
67109;BME280;54027;50.786;7.058;2023-05-08T08:23:12;101669.50;;;16.99;92.09
67109;BME280;54027;50.786;7.058;2023-05-08T08:25:37;101666.19;;;16.91;92.38
67109;BME280;54027;50.786;7.058;2023-05-08T08:28:03;101668.75;;;16.94;92.61
67109;BME280;54027;50.786;7.058;2023-05-08T08:30:28;101673.16;;;16.91;92.56
67109;BME280;54027;50.786;7.058;2023-05-08T08:32:53;101673.84;;;17.00;92.84
67109;BME280;54027;50.786;7.058;2023-05-08T08:35:19;101665.97;;;17.02;92.07
67109;BME280;54027;50.786;7.058;2023-05-08T08:37:44;101664.25;;;17.01;91.36
67109;BME280;54027;50.786;7.058;2023-05-08T08:40:10;101663.34;;;17.02;90.48
67109;BME280;54027;50.786;7.058;2023-05-08T08:42:35;101663.22;;;17.08;90.64
67109;BME280;54027;50.786;7.058;2023-05-08T08:45:01;101659.63;;;17.13;90.64
67109;BME280;54027;50.786;7.058;2023-05-08T08:47:27;101663.22;;;17.08;89.21
67109;BME280;54027;50.786;7.058;2023-05-08T08:49:54;101667.25;;;16.82;88.10
67109;BME280;54027;50.786;7.058;2023-05-08T08:52:31;101668.00;;;16.88;89.06
67109;BME280;54027;50.786;7.058;2023-05-08T08:55:01;101668.94;;;16.85;88.69
67109;BME280;54027;50.786;7.058;2023-05-08T08:57:31;101665.22;;;16.95;90.07
67109;BME280;54027;50.786;7.058;2023-05-08T08:59:58;101665.16;;;17.00;88.73
67109;BME280;54027;50.786;7.058;2023-05-08T09:02:28;101671.00;;;17.11;88.87
67109;BME280;54027;50.786;7.058;2023-05-08T09:04:55;101658.69;;;17.16;87.23
67109;BME280;54027;50.786;7.058;2023-05-08T09:07:21;101661.84;;;17.33;87.33
67109;BME280;54027;50.786;7.058;2023-05-08T09:09:48;101658.16;;;17.41;87.20
67109;BME280;54027;50.786;7.058;2023-05-08T09:12:14;101659.16;;;17.36;87.38
67109;BME280;54027;50.786;7.058;2023-05-08T09:14:40;101668.81;;;17.32;88.57
67109;BME280;54027;50.786;7.058;2023-05-08T09:17:05;101674.81;;;17.36;89.45
67109;BME280;54027;50.786;7.058;2023-05-08T09:19:31;101673.22;;;17.30;89.66
67109;BME280;54027;50.786;7.058;2023-05-08T09:22:00;101676.78;;;17.25;89.47
67109;BME280;54027;50.786;7.058;2023-05-08T09:24:58;101666.50;;;17.17;89.06
67109;BME280;54027;50.786;7.058;2023-05-08T09:27:26;101668.13;;;17.23;89.40
67109;BME280;54027;50.786;7.058;2023-05-08T09:32:32;101665.91;;;17.05;87.44
67109;BME280;54027;50.786;7.058;2023-05-08T09:35:00;101672.81;;;17.07;88.13
67109;BME280;54027;50.786;7.058;2023-05-08T09:37:26;101670.38;;;17.00;86.85
67109;BME280;54027;50.786;7.058;2023-05-08T09:39:52;101671.28;;;16.97;86.94
67109;BME280;54027;50.786;7.058;2023-05-08T09:42:19;101672.09;;;17.01;87.32
67109;BME280;54027;50.786;7.058;2023-05-08T09:44:53;101677.38;;;16.98;87.91
67109;BME280;54027;50.786;7.058;2023-05-08T09:50:08;101679.31;;;16.88;89.57
67109;BME280;54027;50.786;7.058;2023-05-08T09:52:35;101683.06;;;16.72;90.90
67109;BME280;54027;50.786;7.058;2023-05-08T09:55:09;101681.50;;;16.63;92.01
67109;BME280;54027;50.786;7.058;2023-05-08T09:57:40;101675.50;;;16.58;92.71
67109;BME280;54027;50.786;7.058;2023-05-08T10:00:15;101681.66;;;16.54;92.31
67109;BME280;54027;50.786;7.058;2023-05-08T10:02:53;101679.81;;;16.61;92.69
67109;BME280;54027;50.786;7.058;2023-05-08T10:05:31;101684.25;;;16.56;91.76
67109;BME280;54027;50.786;7.058;2023-05-08T10:08:16;101679.97;;;16.53;92.42
67109;BME280;54027;50.786;7.058;2023-05-08T10:10:41;101690.41;;;16.52;93.18
67109;BME280;54027;50.786;7.058;2023-05-08T10:13:07;101684.47;;;16.44;92.22
67109;BME280;54027;50.786;7.058;2023-05-08T10:15:33;101686.16;;;16.46;92.92
67109;BME280;54027;50.786;7.058;2023-05-08T10:18:03;101684.69;;;16.31;92.92
67109;BME280;54027;50.786;7.058;2023-05-08T10:20:31;101689.75;;;16.39;93.65
67109;BME280;54027;50.786;7.058;2023-05-08T10:22:57;101690.72;;;16.33;93.32
67109;BME280;54027;50.786;7.058;2023-05-08T10:25:23;101687.28;;;16.31;93.48
67109;BME280;54027;50.786;7.058;2023-05-08T10:27:54;101682.91;;;16.33;94.10
67109;BME280;54027;50.786;7.058;2023-05-08T10:30:25;101688.13;;;16.33;94.22
67109;BME280;54027;50.786;7.058;2023-05-08T10:32:52;101688.13;;;16.33;93.59
67109;BME280;54027;50.786;7.058;2023-05-08T10:35:22;101684.78;;;16.24;93.49
67109;BME280;54027;50.786;7.058;2023-05-08T10:37:49;101676.16;;;16.22;94.40
67109;BME280;54027;50.786;7.058;2023-05-08T10:40:16;101677.78;;;16.27;94.92
67109;BME280;54027;50.786;7.058;2023-05-08T10:42:44;101675.94;;;16.32;94.47
67109;BME280;54027;50.786;7.058;2023-05-08T10:45:10;101673.44;;;16.28;93.74
67109;BME280;54027;50.786;7.058;2023-05-08T10:47:52;101675.03;;;16.37;93.50
67109;BME280;54027;50.786;7.058;2023-05-08T10:53:21;101673.00;;;16.52;94.32
67109;BME280;54027;50.786;7.058;2023-05-08T10:55:50;101661.53;;;16.61;94.27
67109;BME280;54027;50.786;7.058;2023-05-08T11:03:26;101670.78;;;16.80;91.76
67109;BME280;54027;50.786;7.058;2023-05-08T11:05:53;101666.22;;;16.90;90.56
67109;BME280;54027;50.786;7.058;2023-05-08T11:08:26;101667.19;;;16.85;89.96
67109;BME280;54027;50.786;7.058;2023-05-08T11:13:47;101661.53;;;16.61;89.69
67109;BME280;54027;50.786;7.058;2023-05-08T11:16:14;101661.53;;;16.61;90.11
67109;BME280;54027;50.786;7.058;2023-05-08T11:22:11;101666.31;;;16.85;90.44
67109;BME280;54027;50.786;7.058;2023-05-08T11:24:38;101660.00;;;16.95;88.47
67109;BME280;54027;50.786;7.058;2023-05-08T11:27:03;101655.13;;;17.20;88.42
67109;BME280;54027;50.786;7.058;2023-05-08T11:29:29;101662.72;;;17.32;87.74
67109;BME280;54027;50.786;7.058;2023-05-08T11:31:54;101650.13;;;17.49;86.89
67109;BME280;54027;50.786;7.058;2023-05-08T11:37:21;101646.31;;;18.01;86.30
67109;BME280;54027;50.786;7.058;2023-05-08T11:39:48;101640.31;;;18.31;85.53
67109;BME280;54027;50.786;7.058;2023-05-08T11:44:58;101627.41;;;18.23;83.24
67109;BME280;54027;50.786;7.058;2023-05-08T11:47:34;101632.22;;;18.38;83.98
67109;BME280;54027;50.786;7.058;2023-05-08T11:50:01;101627.47;;;18.52;83.36
67109;BME280;54027;50.786;7.058;2023-05-08T11:52:27;101627.63;;;18.48;83.54
67109;BME280;54027;50.786;7.058;2023-05-08T11:54:53;101629.28;;;18.50;83.75
67109;BME280;54027;50.786;7.058;2023-05-08T11:57:18;101626.72;;;18.49;83.33
67109;BME280;54027;50.786;7.058;2023-05-08T11:59:48;101621.34;;;18.86;82.36
67109;BME280;54027;50.786;7.058;2023-05-08T12:02:15;101622.88;;;18.93;81.25
67109;BME280;54027;50.786;7.058;2023-05-08T12:04:47;101619.19;;;19.28;80.32
67109;BME280;54027;50.786;7.058;2023-05-08T12:07:12;101616.28;;;19.65;80.30
67109;BME280;54027;50.786;7.058;2023-05-08T12:09:38;101608.31;;;19.68;77.95
67109;BME280;54027;50.786;7.058;2023-05-08T12:12:03;101604.91;;;19.38;76.35
67109;BME280;54027;50.786;7.058;2023-05-08T12:14:28;101624.00;;;19.41;78.49
67109;BME280;54027;50.786;7.058;2023-05-08T12:16:54;101609.88;;;19.18;78.13
67109;BME280;54027;50.786;7.058;2023-05-08T12:19:19;101610.56;;;18.96;78.51
67109;BME280;54027;50.786;7.058;2023-05-08T12:21:48;101611.22;;;19.03;79.22
67109;BME280;54027;50.786;7.058;2023-05-08T12:24:15;101603.75;;;19.19;77.77
67109;BME280;54027;50.786;7.058;2023-05-08T12:26:42;101606.88;;;19.31;78.78
67109;BME280;54027;50.786;7.058;2023-05-08T12:29:08;101604.00;;;19.39;77.28
67109;BME280;54027;50.786;7.058;2023-05-08T12:31:34;101600.16;;;19.23;76.27
67109;BME280;54027;50.786;7.058;2023-05-08T12:34:02;101594.88;;;19.50;75.85
67109;BME280;54027;50.786;7.058;2023-05-08T12:36:27;101600.78;;;19.57;75.82
67109;BME280;54027;50.786;7.058;2023-05-08T12:39:07;101614.09;;;19.51;77.03
67109;BME280;54027;50.786;7.058;2023-05-08T12:41:33;101602.97;;;19.71;76.93
67109;BME280;54027;50.786;7.058;2023-05-08T12:43:58;101590.00;;;19.66;75.17
67109;BME280;54027;50.786;7.058;2023-05-08T12:46:24;101598.22;;;19.55;75.98
67109;BME280;54027;50.786;7.058;2023-05-08T12:48:49;101597.38;;;19.27;75.97
67109;BME280;54027;50.786;7.058;2023-05-08T12:51:14;101605.31;;;19.24;76.90
67109;BME280;54027;50.786;7.058;2023-05-08T12:53:40;101602.19;;;19.41;78.66
67109;BME280;54027;50.786;7.058;2023-05-08T12:56:05;101603.81;;;19.17;77.76
67109;BME280;54027;50.786;7.058;2023-05-08T12:58:33;101592.75;;;19.35;77.77
67109;BME280;54027;50.786;7.058;2023-05-08T13:01:09;101591.66;;;19.42;76.96
67109;BME280;54027;50.786;7.058;2023-05-08T13:03:37;101581.25;;;19.39;76.24
67109;BME280;54027;50.786;7.058;2023-05-08T13:06:04;101569.91;;;19.39;75.51
67109;BME280;54027;50.786;7.058;2023-05-08T13:10:59;101577.69;;;19.68;76.53
67109;BME280;54027;50.786;7.058;2023-05-08T13:13:27;101553.28;;;19.92;74.32
67109;BME280;54027;50.786;7.058;2023-05-08T13:15:54;101558.31;;;19.98;73.71
67109;BME280;54027;50.786;7.058;2023-05-08T13:18:23;101557.22;;;19.53;73.55
67109;BME280;54027;50.786;7.058;2023-05-08T13:20:49;101566.94;;;19.76;74.65
67109;BME280;54027;50.786;7.058;2023-05-08T13:23:15;101545.09;;;20.01;72.90
67109;BME280;54027;50.786;7.058;2023-05-08T13:25:40;101531.97;;;20.01;71.57
67109;BME280;54027;50.786;7.058;2023-05-08T13:28:07;101547.16;;;20.18;72.81
67109;BME280;54027;50.786;7.058;2023-05-08T13:30:34;101510.75;;;20.32;69.73
67109;BME280;54027;50.786;7.058;2023-05-08T13:33:00;101532.59;;;20.81;71.10
67109;BME280;54027;50.786;7.058;2023-05-08T13:35:25;101497.81;;;21.17;68.61
67109;BME280;54027;50.786;7.058;2023-05-08T13:37:53;101481.38;;;21.54;67.54
67109;BME280;54027;50.786;7.058;2023-05-08T13:40:19;101499.09;;;22.11;68.01
67109;BME280;54027;50.786;7.058;2023-05-08T13:42:44;101464.03;;;22.85;65.82
67109;BME280;54027;50.786;7.058;2023-05-08T13:45:10;101461.84;;;22.58;64.39